createdAt,value
2022-09-14T00:00:02.255Z,1.00
2022-09-14T00:03:04.265Z,1.00
2022-09-14T00:06:11.769Z,0.80
2022-09-14T00:09:22.508Z,1.00
2022-09-14T00:12:25.374Z,1.13
2022-09-14T00:15:27.505Z,1.10
2022-09-14T00:18:29.479Z,0.83
2022-09-14T00:21:31.770Z,0.90
2022-09-14T00:24:35.556Z,0.80
2022-09-14T00:27:37.561Z,1.10
2022-09-14T00:30:42.745Z,1.00
2022-09-14T00:33:47.558Z,0.80
2022-09-14T00:36:51.188Z,0.90
2022-09-14T00:39:53.422Z,0.90
2022-09-14T00:42:55.510Z,0.83
2022-09-14T00:45:57.834Z,0.77
2022-09-14T00:49:01.368Z,1.10
2022-09-14T00:52:09.144Z,0.97
2022-09-14T00:55:14.875Z,0.77
2022-09-14T00:58:16.871Z,0.83
2022-09-14T01:01:19.213Z,0.77
2022-09-14T01:04:22.502Z,0.80
2022-09-14T01:07:24.903Z,1.27
2022-09-14T01:11:04.713Z,0.90
2022-09-14T01:14:12.790Z,1.10
2022-09-14T01:17:34.938Z,1.00
2022-09-14T01:20:49.150Z,0.73
2022-09-14T01:24:08.870Z,1.00
2022-09-14T01:27:44.402Z,0.70
2022-09-14T01:30:47.109Z,0.83
2022-09-14T01:34:06.302Z,0.97
2022-09-14T01:37:56.458Z,0.47
2022-09-14T01:41:00.705Z,0.93
2022-09-14T01:44:08.470Z,0.60
2022-09-14T01:47:16.654Z,0.80
2022-09-14T01:50:32.022Z,0.80
2022-09-14T01:53:47.709Z,0.90
2022-09-14T01:56:53.634Z,0.90
2022-09-14T01:59:59.179Z,1.20
2022-09-14T02:03:07.035Z,0.93
2022-09-14T02:06:15.193Z,0.97
2022-09-14T02:09:20.101Z,0.80
2022-09-14T02:12:23.105Z,0.93
2022-09-14T02:15:26.540Z,0.80
2022-09-14T02:18:28.468Z,0.90
2022-09-14T02:21:32.820Z,0.80
2022-09-14T02:24:35.403Z,0.90
2022-09-14T02:27:37.264Z,0.97
2022-09-14T02:31:01.454Z,1.07
2022-09-14T02:34:25.589Z,0.80
2022-09-14T02:37:49.509Z,0.80
2022-09-14T02:41:12.415Z,0.70
2022-09-14T02:44:32.069Z,0.70
2022-09-14T02:47:55.709Z,0.87
2022-09-14T02:51:16.347Z,0.90
2022-09-14T02:54:25.205Z,0.70
2022-09-14T02:57:27.324Z,0.70
2022-09-14T03:00:30.636Z,0.70
2022-09-14T03:03:35.596Z,1.00
2022-09-14T03:06:37.863Z,0.90
2022-09-14T03:09:40.834Z,0.80
2022-09-14T03:12:42.751Z,0.60
2022-09-14T03:15:45.210Z,0.80
2022-09-14T03:18:47.200Z,0.70
2022-09-14T03:21:49.294Z,0.70
2022-09-14T03:24:51.249Z,0.77
2022-09-14T03:27:55.769Z,0.60
2022-09-14T03:31:01.752Z,0.80
2022-09-14T03:34:04.234Z,0.83
2022-09-14T03:37:06.893Z,0.90
2022-09-14T03:40:10.414Z,0.90
2022-09-14T03:43:13.069Z,0.90
2022-09-14T03:46:21.789Z,0.90
2022-09-14T03:49:23.675Z,1.03
2022-09-14T03:52:25.873Z,0.83
2022-09-14T03:55:27.864Z,0.70
2022-09-14T03:58:32.966Z,0.80
2022-09-14T04:01:35.023Z,0.87
2022-09-14T04:04:37.024Z,0.70
2022-09-14T04:07:38.939Z,0.70
2022-09-14T04:10:41.156Z,0.90
2022-09-14T04:13:44.567Z,0.70
2022-09-14T04:16:46.680Z,0.70
2022-09-14T04:19:48.656Z,0.80
2022-09-14T04:22:50.694Z,1.67
2022-09-14T04:25:53.495Z,0.60
2022-09-14T04:28:57.027Z,0.77
2022-09-14T04:31:58.976Z,0.97
2022-09-14T04:35:01.315Z,0.80
2022-09-14T04:38:03.667Z,1.00
2022-09-14T04:41:07.744Z,1.00
2022-09-14T04:44:09.606Z,0.90
2022-09-14T04:47:12.186Z,0.90
2022-09-14T04:50:14.426Z,1.30
2022-09-14T04:53:18.350Z,0.90
2022-09-14T04:56:25.318Z,1.10
2022-09-14T04:59:27.230Z,0.70
2022-09-14T05:02:31.319Z,0.90
2022-09-14T05:05:36.658Z,0.80
2022-09-14T05:08:39.299Z,1.20
2022-09-14T05:11:42.065Z,1.07
2022-09-14T05:14:43.965Z,0.90
2022-09-14T05:17:45.825Z,0.70
2022-09-14T05:20:47.937Z,0.80
2022-09-14T05:23:57.914Z,0.70
2022-09-14T05:27:02.146Z,1.30
2022-09-14T05:30:04.540Z,1.20
2022-09-14T05:33:07.208Z,0.90
2022-09-14T05:36:10.644Z,1.00
2022-09-14T05:39:12.931Z,1.10
2022-09-14T05:42:14.860Z,1.00
2022-09-14T05:45:16.923Z,0.90
2022-09-14T05:48:18.950Z,0.80
2022-09-14T05:51:25.222Z,0.97
2022-09-14T05:54:27.246Z,0.77
2022-09-14T05:57:29.229Z,0.80
2022-09-14T06:00:31.740Z,0.70
2022-09-14T06:03:34.895Z,0.90
2022-09-14T06:06:37.125Z,0.77
2022-09-14T06:09:39.057Z,0.70
2022-09-14T06:12:41.079Z,0.90
2022-09-14T06:15:43.119Z,0.97
2022-09-14T06:18:46.724Z,0.80
2022-09-14T06:21:48.744Z,0.80
2022-09-14T06:24:50.665Z,0.87
2022-09-14T06:27:55.529Z,1.07
2022-09-14T06:30:57.680Z,0.60
2022-09-14T06:33:59.940Z,1.00
2022-09-14T06:37:01.892Z,0.97
2022-09-14T06:40:04.862Z,1.10
2022-09-14T06:43:06.844Z,0.80
2022-09-14T06:46:15.171Z,0.77
2022-09-14T06:49:20.970Z,1.00
2022-09-14T06:52:22.956Z,0.90
2022-09-14T06:55:25.015Z,1.00
2022-09-14T06:58:27.060Z,0.83
2022-09-14T07:01:30.255Z,1.00
2022-09-14T07:04:32.209Z,1.43
2022-09-14T07:07:34.341Z,0.90
2022-09-14T07:10:37.199Z,1.33
2022-09-14T07:13:39.195Z,0.80
2022-09-14T07:16:41.865Z,0.80
2022-09-14T07:19:43.740Z,0.80
2022-09-14T07:22:45.890Z,0.73
2022-09-14T07:25:48.038Z,0.90
2022-09-14T07:28:55.957Z,0.90
2022-09-14T07:31:57.815Z,0.90
2022-09-14T07:35:01.162Z,0.73
2022-09-14T07:38:03.036Z,1.10
2022-09-14T07:41:05.693Z,1.00
2022-09-14T07:44:08.899Z,1.13
2022-09-14T07:47:11.185Z,1.08
2022-09-14T07:50:13.520Z,1.35
2022-09-14T07:53:15.485Z,0.90
2022-09-14T07:56:17.978Z,1.33
2022-09-14T07:59:37.004Z,1.13
2022-09-14T08:02:39.529Z,0.80
2022-09-14T08:05:41.436Z,1.10
2022-09-14T08:08:47.647Z,1.20
2022-09-14T08:11:49.896Z,0.95
2022-09-14T08:14:53.496Z,0.90
2022-09-14T08:17:55.770Z,0.90
2022-09-14T08:20:58.146Z,1.05
2022-09-14T08:24:03.000Z,1.00
2022-09-14T08:27:04.905Z,2.28
2022-09-14T08:30:07.410Z,2.80
2022-09-14T08:33:09.435Z,2.92
2022-09-14T08:36:13.815Z,3.05
2022-09-14T08:39:16.463Z,2.50
2022-09-14T08:42:20.402Z,1.88
2022-09-14T08:45:24.199Z,1.60
2022-09-14T08:48:30.711Z,1.30
2022-09-14T08:51:32.590Z,1.17
2022-09-14T08:54:35.225Z,1.15
2022-09-14T08:57:44.450Z,1.10
2022-09-14T09:01:17.744Z,1.30
2022-09-14T09:04:37.835Z,1.05
2022-09-14T09:07:54.864Z,1.10
2022-09-14T09:10:59.869Z,1.05
2022-09-14T09:14:05.081Z,1.02
2022-09-14T09:17:39.146Z,1.00
2022-09-14T09:20:47.817Z,1.00
2022-09-14T09:23:49.764Z,1.17
2022-09-14T09:26:52.437Z,1.10
2022-09-14T09:29:54.292Z,1.08
2022-09-14T09:32:57.590Z,1.15
2022-09-14T09:36:00.280Z,1.27
2022-09-14T09:39:05.131Z,1.00
2022-09-14T09:42:14.476Z,0.75
2022-09-14T09:45:16.461Z,1.20
2022-09-14T09:48:20.693Z,1.08
2022-09-14T09:51:25.618Z,0.70
2022-09-14T09:54:30.531Z,0.80
2022-09-14T09:57:37.194Z,1.25
2022-09-14T10:00:39.232Z,1.05
2022-09-14T10:03:42.106Z,1.00
2022-09-14T10:06:47.241Z,0.90
2022-09-14T10:10:07.174Z,0.88
2022-09-14T10:13:38.331Z,1.20
2022-09-14T10:16:41.960Z,0.88
2022-09-14T10:19:52.599Z,1.13
2022-09-14T10:22:55.322Z,0.65
2022-09-14T10:26:31.824Z,1.20
2022-09-14T10:29:42.275Z,0.70
2022-09-14T10:32:50.294Z,0.80
2022-09-14T10:36:31.356Z,0.95
2022-09-14T10:39:42.452Z,1.00
2022-09-14T10:43:00.187Z,1.20
2022-09-14T10:46:02.910Z,1.00
2022-09-14T10:49:14.565Z,1.05
2022-09-14T10:52:36.720Z,0.77
2022-09-14T10:55:56.765Z,1.23
2022-09-14T10:59:04.967Z,1.00
2022-09-14T11:02:24.751Z,0.90
2022-09-14T11:05:46.460Z,1.02
2022-09-14T11:08:54.545Z,1.20
2022-09-14T11:12:02.159Z,1.10
2022-09-14T11:15:09.395Z,1.20
2022-09-14T11:18:18.917Z,1.30
2022-09-14T11:21:44.667Z,1.30
2022-09-14T11:24:52.020Z,0.90
2022-09-14T11:28:20.848Z,0.90
2022-09-14T11:31:29.219Z,1.30
2022-09-14T11:34:35.247Z,0.90
2022-09-14T11:37:42.075Z,1.02
2022-09-14T11:40:51.239Z,1.45
2022-09-14T11:43:57.579Z,1.02
2022-09-14T11:47:06.294Z,1.20
2022-09-14T11:50:19.430Z,0.77
2022-09-14T11:53:23.440Z,1.15
2022-09-14T11:56:31.236Z,1.15
2022-09-14T11:59:42.670Z,1.17
2022-09-14T12:02:57.988Z,0.90
2022-09-14T12:06:28.848Z,1.30
2022-09-14T12:09:31.985Z,1.20
2022-09-14T12:12:35.522Z,1.45
2022-09-14T12:15:38.346Z,1.55
2022-09-14T12:18:42.765Z,1.70
2022-09-14T12:21:44.936Z,1.45
2022-09-14T12:25:09.510Z,1.30
2022-09-14T12:28:39.776Z,1.30
2022-09-14T12:31:45.355Z,1.55
2022-09-14T12:34:48.381Z,1.30
2022-09-14T12:37:50.775Z,1.15
2022-09-14T12:40:52.590Z,1.45
2022-09-14T12:43:55.842Z,1.38
2022-09-14T12:46:57.879Z,1.20
2022-09-14T12:50:22.433Z,1.17
2022-09-14T12:53:30.349Z,1.60
2022-09-14T12:56:50.692Z,1.50
2022-09-14T13:00:11.866Z,1.20
2022-09-14T13:03:19.923Z,1.80
2022-09-14T13:06:22.926Z,1.70
2022-09-14T13:09:30.101Z,1.27
2022-09-14T13:12:36.801Z,1.50
2022-09-14T13:15:54.296Z,1.40
2022-09-14T13:19:19.239Z,1.58
2022-09-14T13:22:24.296Z,1.70
2022-09-14T13:25:34.822Z,1.75
2022-09-14T13:28:37.341Z,1.75
2022-09-14T13:31:39.975Z,1.48
2022-09-14T13:34:42.284Z,1.48
2022-09-14T13:37:48.204Z,1.52
2022-09-14T13:40:52.130Z,1.75
2022-09-14T13:43:56.259Z,1.40
2022-09-14T13:47:02.416Z,1.73
2022-09-14T13:50:07.178Z,1.50
2022-09-14T13:53:38.996Z,1.60
2022-09-14T13:56:40.907Z,1.73
2022-09-14T14:00:20.551Z,1.70
2022-09-14T14:03:27.110Z,1.70
2022-09-14T14:06:38.135Z,1.67
2022-09-14T14:09:47.140Z,1.48
2022-09-14T14:12:50.937Z,1.65
2022-09-14T14:15:54.539Z,1.50
2022-09-14T14:18:58.837Z,1.63
2022-09-14T14:22:15.777Z,1.10
2022-09-14T14:25:20.729Z,1.85
2022-09-14T14:28:26.829Z,1.50
2022-09-14T14:31:28.821Z,1.38
2022-09-14T14:34:30.736Z,1.70
2022-09-14T14:37:33.558Z,1.70
2022-09-14T14:40:35.566Z,1.42
2022-09-14T14:43:37.927Z,1.73
2022-09-14T14:46:41.940Z,1.25
2022-09-14T14:49:44.217Z,1.40
2022-09-14T14:52:46.124Z,1.60
2022-09-14T14:55:49.260Z,1.20
2022-09-14T14:58:51.400Z,1.50
2022-09-14T15:01:54.650Z,2.10
2022-09-14T15:04:56.477Z,1.92
2022-09-14T15:07:59.137Z,1.73
2022-09-14T15:11:01.444Z,1.75
2022-09-14T15:14:03.430Z,1.98
2022-09-14T15:17:05.360Z,1.95
2022-09-14T15:20:08.225Z,2.20
2022-09-14T15:23:12.973Z,1.70
2022-09-14T15:26:15.127Z,1.70
2022-09-14T15:29:20.291Z,1.95
2022-09-14T15:32:22.247Z,2.20
2022-09-14T15:35:24.624Z,1.63
2022-09-14T15:38:26.570Z,2.00
2022-09-14T15:41:28.849Z,1.65
2022-09-14T15:44:31.491Z,1.63
2022-09-14T15:47:36.385Z,1.73
2022-09-14T15:50:45.295Z,1.83
2022-09-14T15:53:48.318Z,1.85
2022-09-14T15:56:53.274Z,1.45
2022-09-14T15:59:55.539Z,1.90
2022-09-14T16:02:57.566Z,1.58
2022-09-14T16:06:00.295Z,1.60
2022-09-14T16:09:04.306Z,1.60
2022-09-14T16:12:07.636Z,1.73
2022-09-14T16:15:10.749Z,1.50
2022-09-14T16:18:12.652Z,1.70
2022-09-14T16:21:28.985Z,1.88
2022-09-14T16:24:32.360Z,1.50
2022-09-14T16:27:34.250Z,1.23
2022-09-14T16:30:36.116Z,1.20
2022-09-14T16:33:43.600Z,1.20
2022-09-14T16:36:46.139Z,1.30
2022-09-14T16:39:49.435Z,1.20
2022-09-14T16:42:52.172Z,1.30
2022-09-14T16:46:23.605Z,1.48
2022-09-14T16:49:27.987Z,1.50
2022-09-14T16:52:36.347Z,1.10
2022-09-14T16:56:05.589Z,1.20
2022-09-14T16:59:07.912Z,1.30
2022-09-14T17:02:13.074Z,1.20
2022-09-14T17:05:15.105Z,1.15
2022-09-14T17:08:17.687Z,1.10
2022-09-14T17:11:20.684Z,1.20
2022-09-14T17:14:58.924Z,1.23
2022-09-14T17:18:34.098Z,0.90
2022-09-14T17:21:37.803Z,2.22
2022-09-14T17:24:40.273Z,0.70
2022-09-14T17:27:42.146Z,1.20
2022-09-14T17:30:44.391Z,1.10
2022-09-14T17:33:47.923Z,0.90
2022-09-14T17:36:49.817Z,0.82
2022-09-14T17:39:52.430Z,0.90
2022-09-14T17:42:54.468Z,1.05
2022-09-14T17:45:58.767Z,0.90
2022-09-14T17:49:10.736Z,1.02
2022-09-14T17:52:39.189Z,1.13
2022-09-14T17:55:41.967Z,0.90
2022-09-14T17:58:45.818Z,1.10
2022-09-14T18:01:49.113Z,1.00
2022-09-14T18:04:51.107Z,1.00
2022-09-14T18:07:53.029Z,1.17
2022-09-14T18:10:55.111Z,1.25
2022-09-14T18:13:58.531Z,1.40
2022-09-14T18:17:00.722Z,1.40
2022-09-14T18:20:03.121Z,1.20
2022-09-14T18:23:09.333Z,1.50
2022-09-14T18:26:11.382Z,1.45
2022-09-14T18:29:16.351Z,1.20
2022-09-14T18:32:18.198Z,1.30
2022-09-14T18:35:28.346Z,0.93
2022-09-14T18:38:30.332Z,1.10
2022-09-14T18:41:34.442Z,1.50
2022-09-14T18:44:36.373Z,1.20
2022-09-14T18:47:38.361Z,1.30
2022-09-14T18:50:40.982Z,1.30
2022-09-14T18:53:42.972Z,1.30
2022-09-14T19:00:15.206Z,1.30
2022-09-14T19:03:20.450Z,1.47
2022-09-14T19:06:23.436Z,1.80
2022-09-14T19:09:25.482Z,1.63
2022-09-14T19:12:32.085Z,1.10
2022-09-14T19:15:55.605Z,1.53
2022-09-14T19:18:58.221Z,1.40
2022-09-14T19:22:01.347Z,1.83
2022-09-14T19:25:06.033Z,1.40
2022-09-14T19:28:08.091Z,1.77
2022-09-14T19:31:12.636Z,1.70
2022-09-14T19:34:18.814Z,1.60
2022-09-14T19:37:24.811Z,1.67
2022-09-14T19:40:27.946Z,1.70
2022-09-14T19:43:31.709Z,1.80
2022-09-14T19:46:36.534Z,1.80
2022-09-14T19:49:38.611Z,1.40
2022-09-14T19:52:40.541Z,1.77
2022-09-14T19:55:42.632Z,1.63
2022-09-14T19:58:48.875Z,1.00
2022-09-14T20:01:51.328Z,2.00
2022-09-14T20:04:53.686Z,1.58
2022-09-14T20:07:55.828Z,1.60
2022-09-14T20:11:04.831Z,1.43
2022-09-14T20:14:08.976Z,1.77
2022-09-14T20:17:10.887Z,1.60
2022-09-14T20:20:15.817Z,1.50
2022-09-14T20:23:17.742Z,1.60
2022-09-14T20:26:19.732Z,1.10
2022-09-14T20:29:23.232Z,1.27
2022-09-14T20:32:33.570Z,1.20
2022-09-14T20:35:35.426Z,1.93
2022-09-14T20:38:41.831Z,1.30
2022-09-14T20:41:44.210Z,1.40
2022-09-14T20:44:46.553Z,1.20
2022-09-14T20:47:48.439Z,1.27
2022-09-14T20:50:54.317Z,1.70
2022-09-14T20:53:56.606Z,1.20
2022-09-14T20:57:04.098Z,1.70
2022-09-14T21:00:07.117Z,1.73
2022-09-14T21:03:10.735Z,1.57
2022-09-14T21:06:25.369Z,1.80
2022-09-14T21:09:29.376Z,1.50
2022-09-14T21:12:31.654Z,2.13
2022-09-14T21:15:34.118Z,1.60
2022-09-14T21:18:36.238Z,1.30
2022-09-14T21:21:38.923Z,1.60
2022-09-14T21:24:40.781Z,1.67
2022-09-14T21:27:42.652Z,2.10
2022-09-14T21:30:44.761Z,1.90
2022-09-14T21:33:51.309Z,1.77
2022-09-14T21:36:53.466Z,1.90
2022-09-14T21:39:55.466Z,1.60
2022-09-14T21:42:57.337Z,1.60
2022-09-14T21:46:03.633Z,1.43
2022-09-14T21:49:06.697Z,1.60
2022-09-14T21:52:08.941Z,1.73
2022-09-14T21:55:12.209Z,1.63
2022-09-14T21:58:14.126Z,1.90
2022-09-14T22:01:16.692Z,1.60
2022-09-14T22:04:21.399Z,1.67
2022-09-14T22:07:23.391Z,1.20
2022-09-14T22:10:27.826Z,1.53
2022-09-14T22:13:30.302Z,1.30
2022-09-14T22:16:35.307Z,1.40
2022-09-14T22:19:37.232Z,1.40
2022-09-14T22:22:39.197Z,1.50
2022-09-14T22:25:41.823Z,1.50
2022-09-14T22:28:43.815Z,1.70
2022-09-14T22:31:46.131Z,1.27
2022-09-14T22:34:51.042Z,1.70
2022-09-14T22:37:53.177Z,1.93
2022-09-14T22:41:05.883Z,1.70
2022-09-14T22:44:07.971Z,1.37
2022-09-14T22:47:10.030Z,1.30
2022-09-14T22:50:12.336Z,1.47
2022-09-14T22:53:14.669Z,1.90
2022-09-14T22:56:18.383Z,1.60
2022-09-14T22:59:20.728Z,1.70
2022-09-14T23:02:22.730Z,1.80
2022-09-14T23:05:24.761Z,1.70
2022-09-14T23:08:27.542Z,1.80
2022-09-14T23:11:29.672Z,1.83
2022-09-14T23:14:32.416Z,1.80
2022-09-14T23:17:34.371Z,1.67
2022-09-14T23:20:39.957Z,1.40
2022-09-14T23:23:41.933Z,1.73
2022-09-14T23:26:43.907Z,1.60
2022-09-14T23:29:46.194Z,1.50
2022-09-14T23:32:48.124Z,1.90
2022-09-14T23:35:50.988Z,1.83
2022-09-14T23:38:53.238Z,1.90
2022-09-14T23:41:55.501Z,1.93
2022-09-14T23:44:57.368Z,1.93
2022-09-14T23:47:59.293Z,1.30
2022-09-14T23:51:04.597Z,1.57
2022-09-14T23:54:08.438Z,1.60
2022-09-14T23:57:10.374Z,1.67
